Airport ICAO


20:22 UTC

17°C

Clear skies


An affordable passengers' Moving Map for your aircraft. Made for the iPad and the iPhone
More information here

LFMD Mandelieu


Cannes FRANCE   VFR CAVOK


METAR LFMD 162000Z AUTO 34003KT 290V050 CAVOK 17/16 Q1010 BECMG SHRA 0h22min

TAF LFMD 161400Z 1615/1715 36010KT 9999 SHRA FEW040CB BKN100 TEMPO 1615/1618 TSRA BECMG 1618/1620 VRB03KT NSC BECMG 1622/1624 35010KT BECMG 1707/1709 18010KT 6h22min





NOTAMS

OPEN